Terminal Aerodrome Forecast
Issued by NWS Cleveland, OH

Home | Current Version | Previous Version | Text Only | Print | Product List | Glossary On
Versions: 1 2 3 4 5 6 7 8 9 10 11 12 13 14 15 16 17 18 19 20 21 22
966
FTUS41 KCLE 130527
TAFERI
TAF
KERI 130527Z 1306/1406 33014G22KT 6SM -SHSN OVC035
      TEMPO 1306/1308 3SM -SHSN BKN015
     FM131300 31012G20KT 4SM -SHSN OVC025
     FM131800 31012G20KT 1 1/2SM -SHSN OVC018
     FM132300 32010KT 6SM -SHSN BKN025=

USA.gov is the U.S. government's official web portal to all federal, state and local government web resources and services.